sensor_id;sensor_type;location;lat;lon;timestamp;temperature;humidity
10654;DHT22;5375;51.250;6.776;2023-04-25T00:00:13;19.70;46.50
10654;DHT22;5375;51.250;6.776;2023-04-25T00:02:39;19.70;47.10
10654;DHT22;5375;51.250;6.776;2023-04-25T00:05:05;19.70;46.40
10654;DHT22;5375;51.250;6.776;2023-04-25T00:07:31;19.70;46.40
10654;DHT22;5375;51.250;6.776;2023-04-25T00:09:58;19.70;46.40
10654;DHT22;5375;51.250;6.776;2023-04-25T00:12:24;19.70;46.40
10654;DHT22;5375;51.250;6.776;2023-04-25T00:14:50;19.70;46.40
10654;DHT22;5375;51.250;6.776;2023-04-25T00:17:16;19.70;46.40
10654;DHT22;5375;51.250;6.776;2023-04-25T00:19:42;19.70;46.40
10654;DHT22;5375;51.250;6.776;2023-04-25T00:22:10;19.70;47.00
10654;DHT22;5375;51.250;6.776;2023-04-25T00:24:36;19.70;46.30
10654;DHT22;5375;51.250;6.776;2023-04-25T00:27:01;19.70;46.30
10654;DHT22;5375;51.250;6.776;2023-04-25T00:29:41;19.70;46.30
10654;DHT22;5375;51.250;6.776;2023-04-25T00:32:07;19.70;46.30
10654;DHT22;5375;51.250;6.776;2023-04-25T00:34:33;19.70;46.30
10654;DHT22;5375;51.250;6.776;2023-04-25T00:37:01;19.70;46.30
10654;DHT22;5375;51.250;6.776;2023-04-25T00:39:29;19.70;46.30
10654;DHT22;5375;51.250;6.776;2023-04-25T00:41:55;19.70;46.30
10654;DHT22;5375;51.250;6.776;2023-04-25T00:44:21;19.70;46.20
10654;DHT22;5375;51.250;6.776;2023-04-25T00:46:48;19.70;46.10
10654;DHT22;5375;51.250;6.776;2023-04-25T00:49:15;19.60;46.10
10654;DHT22;5375;51.250;6.776;2023-04-25T00:51:43;19.60;46.10
10654;DHT22;5375;51.250;6.776;2023-04-25T00:54:11;19.60;46.10
10654;DHT22;5375;51.250;6.776;2023-04-25T00:56:38;19.60;46.10
10654;DHT22;5375;51.250;6.776;2023-04-25T00:59:04;19.60;46.00
10654;DHT22;5375;51.250;6.776;2023-04-25T01:01:30;19.60;46.00
10654;DHT22;5375;51.250;6.776;2023-04-25T01:03:58;19.60;46.00
10654;DHT22;5375;51.250;6.776;2023-04-25T01:06:25;19.60;46.00
10654;DHT22;5375;51.250;6.776;2023-04-25T01:08:51;19.60;46.00
10654;DHT22;5375;51.250;6.776;2023-04-25T01:11:17;19.60;46.00
10654;DHT22;5375;51.250;6.776;2023-04-25T01:13:44;19.60;46.00
10654;DHT22;5375;51.250;6.776;2023-04-25T01:16:10;19.60;46.00
10654;DHT22;5375;51.250;6.776;2023-04-25T01:18:39;19.60;46.00
10654;DHT22;5375;51.250;6.776;2023-04-25T01:21:11;19.60;45.90
10654;DHT22;5375;51.250;6.776;2023-04-25T01:23:40;19.60;46.00
10654;DHT22;5375;51.250;6.776;2023-04-25T01:26:11;19.60;45.90
10654;DHT22;5375;51.250;6.776;2023-04-25T01:28:39;19.60;46.00
10654;DHT22;5375;51.250;6.776;2023-04-25T01:31:09;19.60;46.00
10654;DHT22;5375;51.250;6.776;2023-04-25T01:33:34;19.60;46.10
10654;DHT22;5375;51.250;6.776;2023-04-25T01:36:00;19.60;46.20
10654;DHT22;5375;51.250;6.776;2023-04-25T01:41:03;19.60;46.30
10654;DHT22;5375;51.250;6.776;2023-04-25T01:43:29;19.60;46.30
10654;DHT22;5375;51.250;6.776;2023-04-25T01:45:55;19.60;46.40
10654;DHT22;5375;51.250;6.776;2023-04-25T01:48:22;19.60;46.40
10654;DHT22;5375;51.250;6.776;2023-04-25T01:50:48;19.60;46.30
10654;DHT22;5375;51.250;6.776;2023-04-25T01:53:14;19.60;46.30
10654;DHT22;5375;51.250;6.776;2023-04-25T01:55:40;19.60;46.30
10654;DHT22;5375;51.250;6.776;2023-04-25T01:58:06;19.60;46.30
10654;DHT22;5375;51.250;6.776;2023-04-25T02:00:35;19.60;46.30
10654;DHT22;5375;51.250;6.776;2023-04-25T02:03:03;19.60;46.30
10654;DHT22;5375;51.250;6.776;2023-04-25T02:05:37;19.60;46.30
10654;DHT22;5375;51.250;6.776;2023-04-25T02:08:05;19.60;46.90
10654;DHT22;5375;51.250;6.776;2023-04-25T02:10:37;19.60;46.30
10654;DHT22;5375;51.250;6.776;2023-04-25T02:13:02;19.60;46.20
10654;DHT22;5375;51.250;6.776;2023-04-25T02:15:32;19.60;46.20
10654;DHT22;5375;51.250;6.776;2023-04-25T02:17:58;19.60;46.20
10654;DHT22;5375;51.250;6.776;2023-04-25T02:20:26;19.60;46.20
10654;DHT22;5375;51.250;6.776;2023-04-25T02:22:54;19.50;46.20
10654;DHT22;5375;51.250;6.776;2023-04-25T02:25:20;19.50;46.10
10654;DHT22;5375;51.250;6.776;2023-04-25T02:27:47;19.50;46.10
10654;DHT22;5375;51.250;6.776;2023-04-25T02:30:13;19.50;46.10
10654;DHT22;5375;51.250;6.776;2023-04-25T02:32:40;19.50;46.10
10654;DHT22;5375;51.250;6.776;2023-04-25T02:35:06;19.50;46.00
10654;DHT22;5375;51.250;6.776;2023-04-25T02:37:35;19.50;46.00
10654;DHT22;5375;51.250;6.776;2023-04-25T02:40:01;19.50;46.00
10654;DHT22;5375;51.250;6.776;2023-04-25T02:42:28;19.50;46.00
10654;DHT22;5375;51.250;6.776;2023-04-25T02:44:54;19.50;46.00
10654;DHT22;5375;51.250;6.776;2023-04-25T02:47:20;19.50;46.00
10654;DHT22;5375;51.250;6.776;2023-04-25T02:49:46;19.50;46.20
10654;DHT22;5375;51.250;6.776;2023-04-25T02:52:13;19.60;46.30
10654;DHT22;5375;51.250;6.776;2023-04-25T02:54:40;19.60;46.40
10654;DHT22;5375;51.250;6.776;2023-04-25T02:57:06;22.00;47.70
10654;DHT22;5375;51.250;6.776;2023-04-25T02:59:33;19.70;46.60
10654;DHT22;5375;51.250;6.776;2023-04-25T03:01:59;19.70;46.60
10654;DHT22;5375;51.250;6.776;2023-04-25T03:04:25;19.70;46.50
10654;DHT22;5375;51.250;6.776;2023-04-25T03:06:51;19.70;46.50
10654;DHT22;5375;51.250;6.776;2023-04-25T03:09:17;19.60;46.50
10654;DHT22;5375;51.250;6.776;2023-04-25T03:11:44;19.60;46.50
10654;DHT22;5375;51.250;6.776;2023-04-25T03:14:12;19.60;46.60
10654;DHT22;5375;51.250;6.776;2023-04-25T03:16:38;19.60;46.60
10654;DHT22;5375;51.250;6.776;2023-04-25T03:19:05;19.60;46.50
10654;DHT22;5375;51.250;6.776;2023-04-25T03:21:32;19.60;46.50
10654;DHT22;5375;51.250;6.776;2023-04-25T03:23:59;19.50;46.40
10654;DHT22;5375;51.250;6.776;2023-04-25T03:26:25;19.50;46.40
10654;DHT22;5375;51.250;6.776;2023-04-25T03:28:50;19.50;46.40
10654;DHT22;5375;51.250;6.776;2023-04-25T03:31:16;19.50;46.40
10654;DHT22;5375;51.250;6.776;2023-04-25T03:33:43;19.50;46.50
10654;DHT22;5375;51.250;6.776;2023-04-25T03:36:08;19.50;46.40
10654;DHT22;5375;51.250;6.776;2023-04-25T03:38:35;19.50;46.40
10654;DHT22;5375;51.250;6.776;2023-04-25T03:41:01;19.50;46.50
10654;DHT22;5375;51.250;6.776;2023-04-25T03:43:27;19.50;46.50
10654;DHT22;5375;51.250;6.776;2023-04-25T03:45:53;19.50;46.50
10654;DHT22;5375;51.250;6.776;2023-04-25T03:48:19;19.50;46.40
10654;DHT22;5375;51.250;6.776;2023-04-25T03:50:50;19.50;46.20
10654;DHT22;5375;51.250;6.776;2023-04-25T03:53:15;19.50;46.10
10654;DHT22;5375;51.250;6.776;2023-04-25T03:55:41;19.50;46.00
10654;DHT22;5375;51.250;6.776;2023-04-25T03:58:07;19.50;45.80
10654;DHT22;5375;51.250;6.776;2023-04-25T04:00:35;19.50;45.80
10654;DHT22;5375;51.250;6.776;2023-04-25T04:03:01;19.60;45.60
10654;DHT22;5375;51.250;6.776;2023-04-25T04:05:29;19.60;45.60
10654;DHT22;5375;51.250;6.776;2023-04-25T04:07:57;19.60;45.70
10654;DHT22;5375;51.250;6.776;2023-04-25T04:10:31;19.70;45.70
10654;DHT22;5375;51.250;6.776;2023-04-25T04:12:57;19.70;45.60
10654;DHT22;5375;51.250;6.776;2023-04-25T04:15:24;19.70;45.70
10654;DHT22;5375;51.250;6.776;2023-04-25T04:17:51;19.70;45.80
10654;DHT22;5375;51.250;6.776;2023-04-25T04:20:17;19.70;45.80
10654;DHT22;5375;51.250;6.776;2023-04-25T04:22:43;19.70;45.70
10654;DHT22;5375;51.250;6.776;2023-04-25T04:25:08;19.80;45.70
10654;DHT22;5375;51.250;6.776;2023-04-25T04:27:35;19.80;45.80
10654;DHT22;5375;51.250;6.776;2023-04-25T04:30:00;19.80;45.80
10654;DHT22;5375;51.250;6.776;2023-04-25T04:32:27;19.80;45.70
10654;DHT22;5375;51.250;6.776;2023-04-25T04:34:55;19.80;46.30
10654;DHT22;5375;51.250;6.776;2023-04-25T04:37:21;19.80;45.70
10654;DHT22;5375;51.250;6.776;2023-04-25T04:39:47;19.80;45.60
10654;DHT22;5375;51.250;6.776;2023-04-25T04:42:13;19.80;45.60
10654;DHT22;5375;51.250;6.776;2023-04-25T04:44:43;19.90;45.70
10654;DHT22;5375;51.250;6.776;2023-04-25T04:47:20;19.90;45.80
10654;DHT22;5375;51.250;6.776;2023-04-25T04:49:48;19.90;45.70
10654;DHT22;5375;51.250;6.776;2023-04-25T04:52:17;19.90;45.80
10654;DHT22;5375;51.250;6.776;2023-04-25T04:54:43;19.90;45.80
10654;DHT22;5375;51.250;6.776;2023-04-25T04:57:09;19.90;45.80
10654;DHT22;5375;51.250;6.776;2023-04-25T04:59:35;19.80;45.70
10654;DHT22;5375;51.250;6.776;2023-04-25T05:02:00;19.90;45.80
10654;DHT22;5375;51.250;6.776;2023-04-25T05:04:29;19.80;45.80
10654;DHT22;5375;51.250;6.776;2023-04-25T05:06:57;19.80;45.80
10654;DHT22;5375;51.250;6.776;2023-04-25T05:09:23;19.80;45.90
10654;DHT22;5375;51.250;6.776;2023-04-25T05:11:51;19.90;46.00
10654;DHT22;5375;51.250;6.776;2023-04-25T05:14:17;19.90;46.00
10654;DHT22;5375;51.250;6.776;2023-04-25T05:16:43;19.90;46.00
10654;DHT22;5375;51.250;6.776;2023-04-25T05:19:09;19.90;46.00
10654;DHT22;5375;51.250;6.776;2023-04-25T05:21:34;19.90;46.00
10654;DHT22;5375;51.250;6.776;2023-04-25T05:24:01;19.90;46.00
10654;DHT22;5375;51.250;6.776;2023-04-25T05:26:29;19.90;46.00
10654;DHT22;5375;51.250;6.776;2023-04-25T05:28:57;19.90;46.10
10654;DHT22;5375;51.250;6.776;2023-04-25T05:31:22;19.90;46.10
10654;DHT22;5375;51.250;6.776;2023-04-25T05:33:48;19.90;46.10
10654;DHT22;5375;51.250;6.776;2023-04-25T05:36:14;19.90;46.00
10654;DHT22;5375;51.250;6.776;2023-04-25T05:38:41;19.90;46.00
10654;DHT22;5375;51.250;6.776;2023-04-25T05:41:08;19.90;46.00
10654;DHT22;5375;51.250;6.776;2023-04-25T05:43:35;19.90;46.00
10654;DHT22;5375;51.250;6.776;2023-04-25T05:46:04;19.90;46.00
10654;DHT22;5375;51.250;6.776;2023-04-25T05:48:31;19.90;46.00
10654;DHT22;5375;51.250;6.776;2023-04-25T05:50:59;19.90;46.10
10654;DHT22;5375;51.250;6.776;2023-04-25T05:53:33;19.90;46.00
10654;DHT22;5375;51.250;6.776;2023-04-25T05:55:59;19.90;46.00
10654;DHT22;5375;51.250;6.776;2023-04-25T05:58:26;19.90;46.10
10654;DHT22;5375;51.250;6.776;2023-04-25T06:00:52;19.90;46.10
10654;DHT22;5375;51.250;6.776;2023-04-25T06:03:17;19.90;46.10
10654;DHT22;5375;51.250;6.776;2023-04-25T06:05:43;19.90;46.10
10654;DHT22;5375;51.250;6.776;2023-04-25T06:08:09;19.90;46.10
10654;DHT22;5375;51.250;6.776;2023-04-25T06:10:36;19.90;46.10
10654;DHT22;5375;51.250;6.776;2023-04-25T06:13:02;19.90;46.10
10654;DHT22;5375;51.250;6.776;2023-04-25T06:15:27;19.90;46.10
10654;DHT22;5375;51.250;6.776;2023-04-25T06:17:53;19.90;46.10
10654;DHT22;5375;51.250;6.776;2023-04-25T06:20:20;19.90;46.10
10654;DHT22;5375;51.250;6.776;2023-04-25T06:22:50;19.90;46.10
10654;DHT22;5375;51.250;6.776;2023-04-25T06:25:17;19.90;46.20
10654;DHT22;5375;51.250;6.776;2023-04-25T06:27:45;19.90;46.10
10654;DHT22;5375;51.250;6.776;2023-04-25T06:30:12;19.90;46.10
10654;DHT22;5375;51.250;6.776;2023-04-25T06:32:38;19.90;46.10
10654;DHT22;5375;51.250;6.776;2023-04-25T06:35:04;19.90;46.20
10654;DHT22;5375;51.250;6.776;2023-04-25T06:37:30;19.90;46.20
10654;DHT22;5375;51.250;6.776;2023-04-25T06:39:56;19.90;46.20
10654;DHT22;5375;51.250;6.776;2023-04-25T06:42:22;19.90;46.20
10654;DHT22;5375;51.250;6.776;2023-04-25T06:44:47;21.40;46.20
10654;DHT22;5375;51.250;6.776;2023-04-25T06:47:13;19.60;44.60
10654;DHT22;5375;51.250;6.776;2023-04-25T06:49:39;19.40;44.20
10654;DHT22;5375;51.250;6.776;2023-04-25T06:52:07;19.20;44.30
10654;DHT22;5375;51.250;6.776;2023-04-25T06:54:33;19.00;44.50
10654;DHT22;5375;51.250;6.776;2023-04-25T06:57:02;18.90;44.40
10654;DHT22;5375;51.250;6.776;2023-04-25T06:59:37;18.70;44.40
10654;DHT22;5375;51.250;6.776;2023-04-25T07:02:07;18.70;44.90
10654;DHT22;5375;51.250;6.776;2023-04-25T07:04:33;18.80;45.40
10654;DHT22;5375;51.250;6.776;2023-04-25T07:06:59;18.90;45.50
10654;DHT22;5375;51.250;6.776;2023-04-25T07:09:31;19.00;45.60
10654;DHT22;5375;51.250;6.776;2023-04-25T07:11:59;19.00;45.70
10654;DHT22;5375;51.250;6.776;2023-04-25T07:14:27;19.10;45.70
10654;DHT22;5375;51.250;6.776;2023-04-25T07:16:52;19.20;45.70
10654;DHT22;5375;51.250;6.776;2023-04-25T07:19:18;19.30;45.70
10654;DHT22;5375;51.250;6.776;2023-04-25T07:21:44;19.30;45.70
10654;DHT22;5375;51.250;6.776;2023-04-25T07:24:10;19.30;45.70
10654;DHT22;5375;51.250;6.776;2023-04-25T07:26:36;19.40;45.70
10654;DHT22;5375;51.250;6.776;2023-04-25T07:29:04;19.40;45.70
10654;DHT22;5375;51.250;6.776;2023-04-25T07:31:32;19.50;45.70
10654;DHT22;5375;51.250;6.776;2023-04-25T07:33:59;19.50;45.70
10654;DHT22;5375;51.250;6.776;2023-04-25T07:36:25;19.50;45.70
10654;DHT22;5375;51.250;6.776;2023-04-25T07:38:51;19.50;45.80
10654;DHT22;5375;51.250;6.776;2023-04-25T07:41:18;19.50;45.70
10654;DHT22;5375;51.250;6.776;2023-04-25T07:43:44;19.60;45.80
10654;DHT22;5375;51.250;6.776;2023-04-25T07:46:10;19.60;45.80
10654;DHT22;5375;51.250;6.776;2023-04-25T07:48:36;19.60;45.80
10654;DHT22;5375;51.250;6.776;2023-04-25T07:51:01;19.60;45.80
10654;DHT22;5375;51.250;6.776;2023-04-25T07:53:28;19.60;45.80
10654;DHT22;5375;51.250;6.776;2023-04-25T07:56:00;19.70;45.80
10654;DHT22;5375;51.250;6.776;2023-04-25T07:58:39;19.70;45.80
10654;DHT22;5375;51.250;6.776;2023-04-25T08:01:05;19.70;45.80
10654;DHT22;5375;51.250;6.776;2023-04-25T08:03:31;19.70;45.70
10654;DHT22;5375;51.250;6.776;2023-04-25T08:05:56;19.70;45.70
10654;DHT22;5375;51.250;6.776;2023-04-25T08:08:22;19.70;45.80
10654;DHT22;5375;51.250;6.776;2023-04-25T08:10:48;19.70;45.80
10654;DHT22;5375;51.250;6.776;2023-04-25T08:13:14;19.70;45.80
10654;DHT22;5375;51.250;6.776;2023-04-25T08:15:40;19.70;45.80
10654;DHT22;5375;51.250;6.776;2023-04-25T08:18:06;19.70;45.80
10654;DHT22;5375;51.250;6.776;2023-04-25T08:20:31;19.80;45.80
10654;DHT22;5375;51.250;6.776;2023-04-25T08:22:57;19.70;45.80
10654;DHT22;5375;51.250;6.776;2023-04-25T08:25:23;19.70;45.80
10654;DHT22;5375;51.250;6.776;2023-04-25T08:27:48;19.70;45.80
10654;DHT22;5375;51.250;6.776;2023-04-25T08:30:15;19.80;45.90
10654;DHT22;5375;51.250;6.776;2023-04-25T08:32:41;19.80;45.90
10654;DHT22;5375;51.250;6.776;2023-04-25T08:35:07;19.70;45.80
10654;DHT22;5375;51.250;6.776;2023-04-25T08:37:32;19.80;45.90
10654;DHT22;5375;51.250;6.776;2023-04-25T08:39:58;19.80;45.90
10654;DHT22;5375;51.250;6.776;2023-04-25T08:42:27;19.80;45.90
10654;DHT22;5375;51.250;6.776;2023-04-25T08:44:54;19.80;45.90
10654;DHT22;5375;51.250;6.776;2023-04-25T08:47:22;19.80;46.00
10654;DHT22;5375;51.250;6.776;2023-04-25T08:49:48;19.80;46.00
10654;DHT22;5375;51.250;6.776;2023-04-25T08:52:22;19.80;46.00
10654;DHT22;5375;51.250;6.776;2023-04-25T08:54:49;19.80;46.00
10654;DHT22;5375;51.250;6.776;2023-04-25T08:57:15;19.80;46.00
10654;DHT22;5375;51.250;6.776;2023-04-25T08:59:42;19.80;46.00
10654;DHT22;5375;51.250;6.776;2023-04-25T09:02:11;19.80;45.90
10654;DHT22;5375;51.250;6.776;2023-04-25T09:04:44;19.80;45.90
10654;DHT22;5375;51.250;6.776;2023-04-25T09:07:10;19.80;45.90
10654;DHT22;5375;51.250;6.776;2023-04-25T09:09:36;19.80;45.90
10654;DHT22;5375;51.250;6.776;2023-04-25T09:12:02;19.80;46.00
10654;DHT22;5375;51.250;6.776;2023-04-25T09:14:28;19.80;46.00
10654;DHT22;5375;51.250;6.776;2023-04-25T09:19:32;19.80;45.90
10654;DHT22;5375;51.250;6.776;2023-04-25T09:22:02;19.80;45.90
10654;DHT22;5375;51.250;6.776;2023-04-25T09:24:43;19.80;45.90
10654;DHT22;5375;51.250;6.776;2023-04-25T09:27:11;19.80;45.80
10654;DHT22;5375;51.250;6.776;2023-04-25T09:29:40;19.80;45.80
10654;DHT22;5375;51.250;6.776;2023-04-25T09:32:22;19.80;45.80
10654;DHT22;5375;51.250;6.776;2023-04-25T09:34:50;19.80;45.80
10654;DHT22;5375;51.250;6.776;2023-04-25T09:39:56;19.80;45.80
10654;DHT22;5375;51.250;6.776;2023-04-25T09:42:25;19.80;45.80
10654;DHT22;5375;51.250;6.776;2023-04-25T09:44:57;19.90;45.80
10654;DHT22;5375;51.250;6.776;2023-04-25T09:47:24;19.80;45.80
10654;DHT22;5375;51.250;6.776;2023-04-25T09:49:54;19.90;45.80
10654;DHT22;5375;51.250;6.776;2023-04-25T09:52:23;19.90;45.80
10654;DHT22;5375;51.250;6.776;2023-04-25T09:54:53;19.90;45.80
10654;DHT22;5375;51.250;6.776;2023-04-25T09:57:33;19.90;45.80
10654;DHT22;5375;51.250;6.776;2023-04-25T10:00:00;19.90;45.80
10654;DHT22;5375;51.250;6.776;2023-04-25T10:02:27;19.90;45.80
10654;DHT22;5375;51.250;6.776;2023-04-25T10:04:55;19.90;45.80
10654;DHT22;5375;51.250;6.776;2023-04-25T10:07:25;19.90;46.40
10654;DHT22;5375;51.250;6.776;2023-04-25T10:09:58;19.90;45.70
10654;DHT22;5375;51.250;6.776;2023-04-25T10:12:28;19.90;45.80
10654;DHT22;5375;51.250;6.776;2023-04-25T10:14:55;19.90;45.80
10654;DHT22;5375;51.250;6.776;2023-04-25T10:17:26;19.90;45.80
10654;DHT22;5375;51.250;6.776;2023-04-25T10:19:54;19.90;45.80
10654;DHT22;5375;51.250;6.776;2023-04-25T10:22:35;19.90;45.80
10654;DHT22;5375;51.250;6.776;2023-04-25T10:25:04;19.90;45.80
10654;DHT22;5375;51.250;6.776;2023-04-25T10:27:32;19.80;45.80
10654;DHT22;5375;51.250;6.776;2023-04-25T10:30:01;19.80;45.80
10654;DHT22;5375;51.250;6.776;2023-04-25T10:32:31;19.80;45.80
10654;DHT22;5375;51.250;6.776;2023-04-25T10:37:38;19.80;45.80
10654;DHT22;5375;51.250;6.776;2023-04-25T10:40:10;19.80;45.90
10654;DHT22;5375;51.250;6.776;2023-04-25T10:42:36;19.80;45.90
10654;DHT22;5375;51.250;6.776;2023-04-25T10:45:04;19.80;45.90
10654;DHT22;5375;51.250;6.776;2023-04-25T10:47:38;19.80;45.90
10654;DHT22;5375;51.250;6.776;2023-04-25T10:50:09;19.80;46.00
10654;DHT22;5375;51.250;6.776;2023-04-25T10:52:34;19.80;46.00
10654;DHT22;5375;51.250;6.776;2023-04-25T10:55:03;19.80;46.00
10654;DHT22;5375;51.250;6.776;2023-04-25T10:57:43;19.80;46.00
10654;DHT22;5375;51.250;6.776;2023-04-25T11:03:01;19.80;46.00
10654;DHT22;5375;51.250;6.776;2023-04-25T11:05:36;19.80;46.10
10654;DHT22;5375;51.250;6.776;2023-04-25T11:08:02;19.70;46.00
10654;DHT22;5375;51.250;6.776;2023-04-25T11:10:33;19.70;46.00
10654;DHT22;5375;51.250;6.776;2023-04-25T11:13:01;19.80;46.10
10654;DHT22;5375;51.250;6.776;2023-04-25T11:15:27;19.70;46.00
10654;DHT22;5375;51.250;6.776;2023-04-25T11:17:53;19.70;46.10
10654;DHT22;5375;51.250;6.776;2023-04-25T11:20:20;19.70;46.10
10654;DHT22;5375;51.250;6.776;2023-04-25T11:22:48;19.70;46.10
10654;DHT22;5375;51.250;6.776;2023-04-25T11:25:15;19.70;46.10
10654;DHT22;5375;51.250;6.776;2023-04-25T11:27:53;19.70;46.10
10654;DHT22;5375;51.250;6.776;2023-04-25T11:30:20;19.70;46.10
10654;DHT22;5375;51.250;6.776;2023-04-25T11:32:46;19.70;46.10
10654;DHT22;5375;51.250;6.776;2023-04-25T11:35:13;19.70;46.10
10654;DHT22;5375;51.250;6.776;2023-04-25T11:37:43;19.70;46.20
10654;DHT22;5375;51.250;6.776;2023-04-25T11:40:13;19.70;46.20
10654;DHT22;5375;51.250;6.776;2023-04-25T11:42:44;19.70;46.30
10654;DHT22;5375;51.250;6.776;2023-04-25T11:45:10;19.70;46.30
10654;DHT22;5375;51.250;6.776;2023-04-25T11:47:36;19.80;46.40
10654;DHT22;5375;51.250;6.776;2023-04-25T11:50:06;19.80;46.40
10654;DHT22;5375;51.250;6.776;2023-04-25T11:52:45;19.80;46.40
10654;DHT22;5375;51.250;6.776;2023-04-25T11:55:16;19.70;46.40
10654;DHT22;5375;51.250;6.776;2023-04-25T11:57:44;19.70;47.00
10654;DHT22;5375;51.250;6.776;2023-04-25T12:00:14;19.70;46.40
10654;DHT22;5375;51.250;6.776;2023-04-25T12:02:48;19.70;46.50
10654;DHT22;5375;51.250;6.776;2023-04-25T12:05:17;19.70;46.50
10654;DHT22;5375;51.250;6.776;2023-04-25T12:07:43;19.70;46.50
10654;DHT22;5375;51.250;6.776;2023-04-25T12:10:12;19.70;46.50
10654;DHT22;5375;51.250;6.776;2023-04-25T12:12:40;19.70;46.50
10654;DHT22;5375;51.250;6.776;2023-04-25T12:15:24;19.70;46.50
10654;DHT22;5375;51.250;6.776;2023-04-25T12:17:52;19.70;46.60
10654;DHT22;5375;51.250;6.776;2023-04-25T12:20:24;19.70;46.60
10654;DHT22;5375;51.250;6.776;2023-04-25T12:22:51;19.70;46.60
10654;DHT22;5375;51.250;6.776;2023-04-25T12:25:41;19.70;46.60
10654;DHT22;5375;51.250;6.776;2023-04-25T12:28:24;19.70;46.70
10654;DHT22;5375;51.250;6.776;2023-04-25T12:30:54;19.70;46.70
10654;DHT22;5375;51.250;6.776;2023-04-25T12:33:24;19.70;46.70
10654;DHT22;5375;51.250;6.776;2023-04-25T12:35:50;19.70;46.80
10654;DHT22;5375;51.250;6.776;2023-04-25T12:40:51;19.70;46.80
10654;DHT22;5375;51.250;6.776;2023-04-25T12:43:19;19.80;46.90
10654;DHT22;5375;51.250;6.776;2023-04-25T12:45:50;19.70;46.80
10654;DHT22;5375;51.250;6.776;2023-04-25T12:48:18;19.70;46.70
10654;DHT22;5375;51.250;6.776;2023-04-25T12:50:44;19.80;46.80
10654;DHT22;5375;51.250;6.776;2023-04-25T12:53:11;19.80;46.70
10654;DHT22;5375;51.250;6.776;2023-04-25T12:55:37;19.80;46.70
10654;DHT22;5375;51.250;6.776;2023-04-25T12:58:02;19.80;46.60
10654;DHT22;5375;51.250;6.776;2023-04-25T13:00:29;19.80;46.60
10654;DHT22;5375;51.250;6.776;2023-04-25T13:02:55;19.80;46.60
10654;DHT22;5375;51.250;6.776;2023-04-25T13:05:23;19.80;46.60
10654;DHT22;5375;51.250;6.776;2023-04-25T13:07:49;19.80;46.60
10654;DHT22;5375;51.250;6.776;2023-04-25T13:10:15;19.80;46.50
10654;DHT22;5375;51.250;6.776;2023-04-25T13:12:41;19.80;46.50
10654;DHT22;5375;51.250;6.776;2023-04-25T13:15:07;19.80;46.60
10654;DHT22;5375;51.250;6.776;2023-04-25T13:17:34;19.80;46.50
10654;DHT22;5375;51.250;6.776;2023-04-25T13:20:00;19.80;46.50
10654;DHT22;5375;51.250;6.776;2023-04-25T13:22:25;19.80;46.50
10654;DHT22;5375;51.250;6.776;2023-04-25T13:24:51;19.80;46.50
10654;DHT22;5375;51.250;6.776;2023-04-25T13:27:17;19.80;46.50
10654;DHT22;5375;51.250;6.776;2023-04-25T13:29:42;19.80;46.50
10654;DHT22;5375;51.250;6.776;2023-04-25T13:32:09;19.80;46.50
10654;DHT22;5375;51.250;6.776;2023-04-25T13:34:35;19.80;46.50
10654;DHT22;5375;51.250;6.776;2023-04-25T13:37:00;19.80;46.60
10654;DHT22;5375;51.250;6.776;2023-04-25T13:39:26;19.80;46.50
10654;DHT22;5375;51.250;6.776;2023-04-25T13:41:52;19.90;46.60
10654;DHT22;5375;51.250;6.776;2023-04-25T13:44:19;19.90;46.50
10654;DHT22;5375;51.250;6.776;2023-04-25T13:46:44;19.80;46.40
10654;DHT22;5375;51.250;6.776;2023-04-25T13:49:11;19.90;46.50
10654;DHT22;5375;51.250;6.776;2023-04-25T13:51:37;19.90;46.40
10654;DHT22;5375;51.250;6.776;2023-04-25T13:54:03;19.90;46.40
10654;DHT22;5375;51.250;6.776;2023-04-25T13:56:28;19.90;46.40
10654;DHT22;5375;51.250;6.776;2023-04-25T13:58:54;20.40;46.60
10654;DHT22;5375;51.250;6.776;2023-04-25T14:01:20;19.90;46.40
10654;DHT22;5375;51.250;6.776;2023-04-25T14:03:46;19.90;46.40
10654;DHT22;5375;51.250;6.776;2023-04-25T14:06:12;19.90;46.30
10654;DHT22;5375;51.250;6.776;2023-04-25T14:08:40;19.90;46.30
10654;DHT22;5375;51.250;6.776;2023-04-25T14:11:05;19.90;46.30
10654;DHT22;5375;51.250;6.776;2023-04-25T14:13:31;19.90;46.30
10654;DHT22;5375;51.250;6.776;2023-04-25T14:15:58;19.90;46.30
10654;DHT22;5375;51.250;6.776;2023-04-25T14:18:23;19.90;46.30
10654;DHT22;5375;51.250;6.776;2023-04-25T14:20:49;19.90;46.30
10654;DHT22;5375;51.250;6.776;2023-04-25T14:23:15;19.90;46.30
10654;DHT22;5375;51.250;6.776;2023-04-25T14:25:43;19.90;46.40
10654;DHT22;5375;51.250;6.776;2023-04-25T14:28:10;19.90;46.50
10654;DHT22;5375;51.250;6.776;2023-04-25T14:30:36;19.90;46.50
10654;DHT22;5375;51.250;6.776;2023-04-25T14:33:02;19.80;46.40
10654;DHT22;5375;51.250;6.776;2023-04-25T14:35:27;19.80;46.40
10654;DHT22;5375;51.250;6.776;2023-04-25T14:37:54;19.90;46.40
10654;DHT22;5375;51.250;6.776;2023-04-25T14:40:20;19.90;46.40
10654;DHT22;5375;51.250;6.776;2023-04-25T14:42:48;19.90;46.40
10654;DHT22;5375;51.250;6.776;2023-04-25T14:45:14;19.90;46.40
10654;DHT22;5375;51.250;6.776;2023-04-25T14:47:40;19.90;46.40
10654;DHT22;5375;51.250;6.776;2023-04-25T14:50:06;19.90;46.40
10654;DHT22;5375;51.250;6.776;2023-04-25T14:55:07;19.90;46.30
10654;DHT22;5375;51.250;6.776;2023-04-25T14:57:34;19.90;46.30
10654;DHT22;5375;51.250;6.776;2023-04-25T15:00:00;19.90;46.40
10654;DHT22;5375;51.250;6.776;2023-04-25T15:02:26;19.90;46.30
10654;DHT22;5375;51.250;6.776;2023-04-25T15:04:52;19.90;46.30
10654;DHT22;5375;51.250;6.776;2023-04-25T15:07:18;19.90;46.30
10654;DHT22;5375;51.250;6.776;2023-04-25T15:09:46;19.90;46.30
10654;DHT22;5375;51.250;6.776;2023-04-25T15:12:14;19.90;46.20
10654;DHT22;5375;51.250;6.776;2023-04-25T15:14:40;19.90;46.20
10654;DHT22;5375;51.250;6.776;2023-04-25T15:17:06;19.90;46.30
10654;DHT22;5375;51.250;6.776;2023-04-25T15:19:32;19.90;46.30
10654;DHT22;5375;51.250;6.776;2023-04-25T15:21:58;19.90;46.40
10654;DHT22;5375;51.250;6.776;2023-04-25T15:24:26;19.90;46.40
10654;DHT22;5375;51.250;6.776;2023-04-25T15:26:52;19.80;46.30
10654;DHT22;5375;51.250;6.776;2023-04-25T15:29:19;19.80;46.30
10654;DHT22;5375;51.250;6.776;2023-04-25T15:31:46;19.80;46.30
10654;DHT22;5375;51.250;6.776;2023-04-25T15:34:15;19.80;46.30
10654;DHT22;5375;51.250;6.776;2023-04-25T15:36:41;19.80;46.40
10654;DHT22;5375;51.250;6.776;2023-04-25T15:39:09;19.80;46.40
10654;DHT22;5375;51.250;6.776;2023-04-25T15:41:36;19.80;46.40
10654;DHT22;5375;51.250;6.776;2023-04-25T15:44:02;19.80;46.30
10654;DHT22;5375;51.250;6.776;2023-04-25T15:46:28;19.80;46.30
10654;DHT22;5375;51.250;6.776;2023-04-25T15:48:55;19.80;46.30
10654;DHT22;5375;51.250;6.776;2023-04-25T15:51:21;19.80;46.40
10654;DHT22;5375;51.250;6.776;2023-04-25T15:53:47;19.90;46.40
10654;DHT22;5375;51.250;6.776;2023-04-25T15:56:13;19.90;46.30
10654;DHT22;5375;51.250;6.776;2023-04-25T15:58:41;19.90;46.30
10654;DHT22;5375;51.250;6.776;2023-04-25T16:01:06;19.90;46.30
10654;DHT22;5375;51.250;6.776;2023-04-25T16:03:33;19.90;46.20